EPLL/LCJ METAR and TAF weather

Enter ICAO airport designator
Station Type Date Time Source
EPLL METAR 2019/04/25 22:00 UTC NOAA

EPLL 252200Z VRB01KT CAVOK 14/11 Q1013


Station Type Date Time Source
EPLL Decoded METAR 2019/04/25 22:00 UTC NOAA

Station name not available
Apr 25, 2019 - 06:00 PM EDT / 2019.04.25 2200 UTC
Wind: Variable at 1 MPH (1 KT):0
Visibility: greater than 7 mile(s):0
Temperature: 57 F (14 C)
Dew Point: 51 F (11 C)
Relative Humidity: 82%
Pressure (altimeter): 29.91 in. Hg (1013 hPa)
ob: EPLL 252200Z VRB01KT CAVOK 14/11 Q1013
cycle: 22

Station Type Date Time Source
EPLL TAF 2019/04/25 18:00 UTC NOAA

TAF EPLL 251730Z 2518/2618 24010KT CAVOK
BECMG 2600/2603 14012KT

Example: see airport list